Time;durP1;ratioP1;P1;durP2;ratioP2;P2;SDS_P1;SDS_P2;PMS_P1;PMS_P2;Temp;Humidity;BMP_temperature;BMP_pressure;BME280_temperature;BME280_humidity;BME280_pressure;Samples;Min_cycle;Max_cycle;Signal;HPM_P1;HPM_P2
2021/07/18 00:02:10;;;;;;;13.50;3.65;;;;;;;;;;5061855;28;20009;-89
2021/07/18 00:04:35;;;;;;;9.20;3.30;;;;;;;;;;5059999;28;20013;-89
2021/07/18 00:07:00;;;;;;;6.90;3.00;;;;;;;;;;5054126;28;20020;-89
2021/07/18 00:09:26;;;;;;;5.32;3.08;;;;;;;;;;5043409;28;20010;-90
2021/07/18 00:11:51;;;;;;;9.40;3.35;;;;;;;;;;5053564;28;20021;-89
2021/07/18 00:14:16;;;;;;;7.53;3.97;;;;;;;;;;5052978;28;20021;-89
2021/07/18 00:16:41;;;;;;;11.20;3.72;;;;;;;;;;5054774;28;20024;-89
2021/07/18 00:19:07;;;;;;;8.02;3.70;;;;;;;;;;5053005;28;20035;-88
2021/07/18 00:21:32;;;;;;;12.60;3.92;;;;;;;;;;5053117;28;20074;-89
2021/07/18 00:23:58;;;;;;;11.40;4.00;;;;;;;;;;5053231;28;20017;-89
2021/07/18 00:26:23;;;;;;;6.68;3.20;;;;;;;;;;5054373;28;20017;-89
2021/07/18 00:28:48;;;;;;;8.52;3.83;;;;;;;;;;5054051;28;20016;-89
2021/07/18 00:31:13;;;;;;;11.50;4.20;;;;;;;;;;5052870;28;20102;-89
2021/07/18 00:33:39;;;;;;;10.15;3.72;;;;;;;;;;5053054;28;20075;-89
2021/07/18 00:36:04;;;;;;;7.07;3.60;;;;;;;;;;5053059;28;20036;-89
2021/07/18 00:38:29;;;;;;;15.52;4.10;;;;;;;;;;5052797;28;20131;-89
2021/07/18 00:40:55;;;;;;;10.50;3.90;;;;;;;;;;5053841;28;20443;-88
2021/07/18 00:43:20;;;;;;;8.88;3.83;;;;;;;;;;5052679;28;20404;-88
2021/07/18 00:45:45;;;;;;;8.90;4.03;;;;;;;;;;5052565;28;20427;-89
2021/07/18 00:48:10;;;;;;;11.23;4.28;;;;;;;;;;5052605;28;20070;-89
2021/07/18 00:50:37;;;;;;;7.97;3.97;;;;;;;;;;5052849;28;20021;-89
2021/07/18 00:53:02;;;;;;;7.30;4.00;;;;;;;;;;5052531;28;20372;-89
2021/07/18 00:55:27;;;;;;;13.10;4.03;;;;;;;;;;5053572;28;20027;-89
2021/07/18 00:57:53;;;;;;;8.98;4.05;;;;;;;;;;5052744;28;20061;-89
2021/07/18 01:00:18;;;;;;;10.55;4.07;;;;;;;;;;5053252;28;20032;-89
2021/07/18 01:02:44;;;;;;;11.43;4.28;;;;;;;;;;5053568;28;20372;-89
2021/07/18 01:05:11;;;;;;;10.25;4.78;;;;;;;;;;5053386;28;20078;-88
2021/07/18 01:07:36;;;;;;;12.70;5.00;;;;;;;;;;5053490;28;20013;-89
2021/07/18 01:10:04;;;;;;;12.95;4.30;;;;;;;;;;5052280;28;20353;-89
2021/07/18 01:12:29;;;;;;;19.25;5.68;;;;;;;;;;5057526;28;20021;-89
2021/07/18 01:14:54;;;;;;;10.48;4.78;;;;;;;;;;5066257;28;20051;-89
2021/07/18 01:17:20;;;;;;;8.80;4.50;;;;;;;;;;5071989;28;20460;-89
2021/07/18 01:19:45;;;;;;;8.90;4.45;;;;;;;;;;5072084;28;20017;-89
2021/07/18 01:22:10;;;;;;;12.43;5.60;;;;;;;;;;5071965;28;20028;-89
2021/07/18 01:24:36;;;;;;;7.60;4.35;;;;;;;;;;5073437;28;20066;-89
2021/07/18 01:27:02;;;;;;;10.35;4.90;;;;;;;;;;5060073;28;20474;-89
2021/07/18 01:29:28;;;;;;;15.48;4.68;;;;;;;;;;5072378;28;20020;-89
2021/07/18 01:31:53;;;;;;;9.13;4.53;;;;;;;;;;5071909;28;20020;-89
2021/07/18 01:34:19;;;;;;;11.32;5.03;;;;;;;;;;5073399;28;20023;-90
2021/07/18 01:36:44;;;;;;;12.15;5.30;;;;;;;;;;5071289;28;20028;-88
2021/07/18 01:39:10;;;;;;;16.88;5.72;;;;;;;;;;5058268;28;20028;-89
2021/07/18 01:41:35;;;;;;;13.55;5.43;;;;;;;;;;5058803;28;20048;-89
2021/07/18 01:44:01;;;;;;;13.93;4.85;;;;;;;;;;5058729;28;20020;-89
2021/07/18 01:46:27;;;;;;;14.45;4.90;;;;;;;;;;5071901;28;20036;-89
2021/07/18 01:48:52;;;;;;;9.32;4.97;;;;;;;;;;5070079;28;20028;-89
2021/07/18 01:51:21;;;;;;;17.73;7.53;;;;;;;;;;5059585;28;20059;-89
2021/07/18 01:53:48;;;;;;;8.55;4.45;;;;;;;;;;5072965;28;20027;-89
2021/07/18 01:56:14;;;;;;;13.85;5.50;;;;;;;;;;5067308;28;20035;-89
2021/07/18 01:58:39;;;;;;;10.70;4.72;;;;;;;;;;5071773;28;20020;-88
2021/07/18 02:01:04;;;;;;;14.60;5.22;;;;;;;;;;5068362;28;20373;-88
2021/07/18 02:03:29;;;;;;;11.13;5.10;;;;;;;;;;5052783;28;20070;-88
2021/07/18 02:05:54;;;;;;;10.88;4.85;;;;;;;;;;5069265;28;20052;-89
2021/07/18 02:08:20;;;;;;;13.43;5.63;;;;;;;;;;5071649;28;20115;-88
2021/07/18 02:10:45;;;;;;;11.15;5.80;;;;;;;;;;5072721;28;20455;-87
2021/07/18 02:13:13;;;;;;;12.18;5.38;;;;;;;;;;5065745;28;20025;-89
2021/07/18 02:15:39;;;;;;;11.68;5.20;;;;;;;;;;5065035;28;20028;-89
2021/07/18 02:18:04;;;;;;;10.95;5.72;;;;;;;;;;5060274;28;20028;-89
2021/07/18 02:20:29;;;;;;;10.57;5.63;;;;;;;;;;5062201;28;20052;-88
2021/07/18 02:22:54;;;;;;;14.90;5.53;;;;;;;;;;5065491;28;20073;-89
2021/07/18 02:25:21;;;;;;;13.88;5.80;;;;;;;;;;5059908;28;20422;-88
2021/07/18 02:27:46;;;;;;;10.70;5.75;;;;;;;;;;5071540;28;20023;-89
2021/07/18 02:30:13;;;;;;;9.80;4.97;;;;;;;;;;5067598;28;20009;-88
2021/07/18 02:32:41;;;;;;;10.90;5.50;;;;;;;;;;5057539;28;20020;-89
2021/07/18 02:35:07;;;;;;;14.10;5.70;;;;;;;;;;5066584;28;20028;-88
2021/07/18 02:37:32;;;;;;;13.00;6.30;;;;;;;;;;5060767;28;20020;-89
2021/07/18 02:39:57;;;;;;;10.77;5.68;;;;;;;;;;5072338;28;20012;-89
2021/07/18 02:42:23;;;;;;;15.73;6.38;;;;;;;;;;5072836;28;20448;-88
2021/07/18 02:44:48;;;;;;;12.93;5.78;;;;;;;;;;5061625;28;20460;-88
2021/07/18 02:47:13;;;;;;;13.98;6.32;;;;;;;;;;5072792;28;20047;-88
2021/07/18 02:49:39;;;;;;;13.27;6.03;;;;;;;;;;5073449;28;20025;-89
2021/07/18 02:52:04;;;;;;;15.90;5.30;;;;;;;;;;5073014;28;20049;-88
2021/07/18 02:54:30;;;;;;;13.95;5.78;;;;;;;;;;5073348;28;20031;-89
2021/07/18 02:56:55;;;;;;;10.88;5.65;;;;;;;;;;5059762;28;20135;-88
2021/07/18 02:59:20;;;;;;;8.68;5.18;;;;;;;;;;5073876;28;20111;-89
2021/07/18 03:01:45;;;;;;;10.45;4.90;;;;;;;;;;5073458;28;20027;-89
2021/07/18 03:04:11;;;;;;;11.07;5.43;;;;;;;;;;5074303;28;20357;-88
2021/07/18 03:06:36;;;;;;;12.73;4.45;;;;;;;;;;5073320;28;20012;-89
2021/07/18 03:09:01;;;;;;;12.60;5.40;;;;;;;;;;5070744;28;20153;-88
2021/07/18 03:11:26;;;;;;;12.40;5.15;;;;;;;;;;5061238;28;20384;-89
2021/07/18 03:13:51;;;;;;;9.50;5.53;;;;;;;;;;5068548;28;20052;-88
2021/07/18 03:16:17;;;;;;;11.90;5.25;;;;;;;;;;5062201;28;20012;-87
2021/07/18 03:18:42;;;;;;;8.55;4.65;;;;;;;;;;5074464;28;20059;-89
2021/07/18 03:21:07;;;;;;;6.57;4.63;;;;;;;;;;5067216;28;20143;-89
2021/07/18 03:23:32;;;;;;;14.02;4.90;;;;;;;;;;5060701;28;20504;-88
2021/07/18 03:25:57;;;;;;;8.25;4.93;;;;;;;;;;5074635;28;20055;-88
2021/07/18 03:28:23;;;;;;;11.07;4.88;;;;;;;;;;5056260;28;20021;-88
2021/07/18 03:30:48;;;;;;;12.35;4.95;;;;;;;;;;5064343;28;20029;-88
2021/07/18 03:33:13;;;;;;;8.65;5.13;;;;;;;;;;5074096;28;20012;-89
2021/07/18 03:35:39;;;;;;;11.23;4.95;;;;;;;;;;5074201;28;20022;-89
2021/07/18 03:38:04;;;;;;;9.13;4.40;;;;;;;;;;5075476;28;20104;-88
2021/07/18 03:40:29;;;;;;;7.55;4.00;;;;;;;;;;5075101;28;20107;-89
2021/07/18 03:42:55;;;;;;;10.63;4.72;;;;;;;;;;5074139;28;20021;-89
2021/07/18 03:45:20;;;;;;;9.60;4.85;;;;;;;;;;5068311;28;20059;-89
2021/07/18 03:47:46;;;;;;;9.07;5.10;;;;;;;;;;5075079;28;20463;-89
2021/07/18 03:50:11;;;;;;;13.32;5.35;;;;;;;;;;5073718;28;20135;-88
2021/07/18 03:52:37;;;;;;;13.00;5.35;;;;;;;;;;5073408;28;20021;-89
2021/07/18 03:55:02;;;;;;;13.38;5.88;;;;;;;;;;5060358;28;20112;-88
2021/07/18 03:57:27;;;;;;;12.43;5.97;;;;;;;;;;5067652;28;20062;-89
2021/07/18 03:59:53;;;;;;;11.02;5.15;;;;;;;;;;5066460;28;20044;-89
2021/07/18 04:02:18;;;;;;;13.90;5.32;;;;;;;;;;5069897;28;20108;-89
2021/07/18 04:04:43;;;;;;;8.65;5.00;;;;;;;;;;5061817;28;20099;-88
2021/07/18 04:07:08;;;;;;;8.48;4.75;;;;;;;;;;5068674;28;20414;-88
2021/07/18 04:09:33;;;;;;;11.25;5.03;;;;;;;;;;5060754;28;20023;-89
2021/07/18 04:11:59;;;;;;;10.80;5.03;;;;;;;;;;5068934;28;20021;-89
2021/07/18 04:14:24;;;;;;;10.25;4.60;;;;;;;;;;5073394;28;20027;-88
2021/07/18 04:16:49;;;;;;;10.15;5.40;;;;;;;;;;5073282;28;20062;-88
2021/07/18 04:19:14;;;;;;;15.00;5.88;;;;;;;;;;5073102;28;20464;-88
2021/07/18 04:21:39;;;;;;;9.13;5.45;;;;;;;;;;5073218;28;20065;-88
2021/07/18 04:24:05;;;;;;;10.85;6.03;;;;;;;;;;5073199;28;20380;-88
2021/07/18 04:26:30;;;;;;;9.18;5.50;;;;;;;;;;5058581;28;20028;-89
2021/07/18 04:28:55;;;;;;;13.00;5.18;;;;;;;;;;5074521;28;20382;-89
2021/07/18 04:31:20;;;;;;;8.80;4.93;;;;;;;;;;5072870;28;20464;-88
2021/07/18 04:33:48;;;;;;;10.15;4.63;;;;;;;;;;5066780;28;20427;-89
2021/07/18 04:36:13;;;;;;;10.85;4.65;;;;;;;;;;5053064;28;20408;-88
2021/07/18 04:38:38;;;;;;;8.52;4.75;;;;;;;;;;5072674;28;20025;-89
2021/07/18 04:41:03;;;;;;;9.35;5.28;;;;;;;;;;5073010;28;20024;-88
2021/07/18 04:43:29;;;;;;;10.48;5.03;;;;;;;;;;5071569;28;20017;-89
2021/07/18 04:45:54;;;;;;;13.23;4.70;;;;;;;;;;5062365;28;20475;-88
2021/07/18 04:48:19;;;;;;;13.57;5.85;;;;;;;;;;5073910;28;20094;-88
2021/07/18 04:50:45;;;;;;;13.80;4.97;;;;;;;;;;5070580;28;20037;-89
2021/07/18 04:53:11;;;;;;;10.50;5.65;;;;;;;;;;5071092;28;20020;-89
2021/07/18 04:55:36;;;;;;;9.45;5.30;;;;;;;;;;5071079;28;20012;-88
2021/07/18 04:58:01;;;;;;;12.38;5.97;;;;;;;;;;5071568;28;20052;-88
2021/07/18 05:00:26;;;;;;;9.73;5.45;;;;;;;;;;5072012;28;20020;-88
2021/07/18 05:02:51;;;;;;;14.73;5.88;;;;;;;;;;5064360;28;20074;-88
2021/07/18 05:05:18;;;;;;;11.65;5.55;;;;;;;;;;5069904;28;20070;-89
2021/07/18 05:07:44;;;;;;;10.88;5.32;;;;;;;;;;5071210;28;20013;-89
2021/07/18 05:10:09;;;;;;;13.18;6.07;;;;;;;;;;5072390;28;20470;-89
2021/07/18 05:12:35;;;;;;;16.95;6.75;;;;;;;;;;5066757;28;20013;-89
2021/07/18 05:15:00;;;;;;;14.25;7.03;;;;;;;;;;5061043;28;20023;-88
2021/07/18 05:17:25;;;;;;;11.70;6.65;;;;;;;;;;5068437;28;20107;-89
2021/07/18 05:19:50;;;;;;;15.73;7.28;;;;;;;;;;5059792;28;20025;-89
2021/07/18 05:22:15;;;;;;;15.25;7.28;;;;;;;;;;5062394;28;20028;-88
2021/07/18 05:24:41;;;;;;;19.42;8.45;;;;;;;;;;5072033;28;20016;-88
2021/07/18 05:27:06;;;;;;;17.13;8.88;;;;;;;;;;5072228;28;20464;-88
2021/07/18 05:29:31;;;;;;;18.75;9.40;;;;;;;;;;5062639;28;20056;-89
2021/07/18 05:31:56;;;;;;;19.98;10.05;;;;;;;;;;5065883;28;20119;-88
2021/07/18 05:34:21;;;;;;;19.00;10.13;;;;;;;;;;5063604;28;20020;-89
2021/07/18 05:36:47;;;;;;;24.10;11.02;;;;;;;;;;5072863;28;20027;-89
2021/07/18 05:39:15;;;;;;;20.52;10.48;;;;;;;;;;5072021;28;20025;-88
2021/07/18 05:41:40;;;;;;;20.55;10.48;;;;;;;;;;5066824;28;20021;-89
2021/07/18 05:44:05;;;;;;;28.67;11.65;;;;;;;;;;5064494;28;20078;-89
2021/07/18 05:46:30;;;;;;;23.95;10.98;;;;;;;;;;5065281;28;20776;-89
2021/07/18 05:48:56;;;;;;;25.45;11.77;;;;;;;;;;5071743;28;20059;-89
2021/07/18 05:51:21;;;;;;;22.90;10.50;;;;;;;;;;5067325;28;20120;-89
2021/07/18 05:53:46;;;;;;;23.08;11.32;;;;;;;;;;5054648;28;20048;-89
2021/07/18 05:56:11;;;;;;;25.00;10.18;;;;;;;;;;5071910;28;20717;-89
2021/07/18 05:58:36;;;;;;;22.08;10.43;;;;;;;;;;5069204;28;20028;-88
2021/07/18 06:01:02;;;;;;;25.70;11.25;;;;;;;;;;5064885;28;20025;-89
2021/07/18 06:03:27;;;;;;;23.08;11.90;;;;;;;;;;5051497;28;20380;-88
2021/07/18 06:05:52;;;;;;;20.42;10.45;;;;;;;;;;5070402;28;20016;-89
2021/07/18 06:08:17;;;;;;;21.00;9.82;;;;;;;;;;5072830;28;20021;-89
2021/07/18 06:10:43;;;;;;;22.85;9.80;;;;;;;;;;5071567;28;20025;-89
2021/07/18 06:13:08;;;;;;;22.40;8.18;;;;;;;;;;5071771;28;20543;-89
2021/07/18 06:15:34;;;;;;;16.52;9.40;;;;;;;;;;5052480;28;20031;-89
2021/07/18 06:17:59;;;;;;;20.25;9.95;;;;;;;;;;5069189;28;20674;-89
2021/07/18 06:20:24;;;;;;;20.65;10.63;;;;;;;;;;5067867;28;20020;-89
2021/07/18 06:22:51;;;;;;;26.38;11.55;;;;;;;;;;5075429;28;20017;-89
2021/07/18 06:25:17;;;;;;;18.17;9.65;;;;;;;;;;5075608;28;20460;-88
2021/07/18 06:27:42;;;;;;;21.27;9.55;;;;;;;;;;5062780;28;20051;-89
2021/07/18 06:30:08;;;;;;;17.58;9.68;;;;;;;;;;5073544;28;20460;-89
2021/07/18 06:32:34;;;;;;;23.75;9.32;;;;;;;;;;5057803;28;20025;-89
2021/07/18 06:34:59;;;;;;;18.48;9.55;;;;;;;;;;5071931;28;20016;-89
2021/07/18 06:37:24;;;;;;;17.35;8.38;;;;;;;;;;5068294;28;20044;-88
2021/07/18 06:39:49;;;;;;;22.50;10.75;;;;;;;;;;5069362;28;20020;-89
2021/07/18 06:42:16;;;;;;;19.77;8.77;;;;;;;;;;5071429;28;20414;-89
2021/07/18 06:44:41;;;;;;;18.30;7.85;;;;;;;;;;5075011;28;20070;-89
2021/07/18 06:47:06;;;;;;;21.65;8.43;;;;;;;;;;5074853;28;20472;-89
2021/07/18 06:49:32;;;;;;;18.05;8.35;;;;;;;;;;5068288;28;20352;-89
2021/07/18 06:51:57;;;;;;;18.85;8.07;;;;;;;;;;5070054;28;20115;-87
2021/07/18 06:54:23;;;;;;;13.68;6.15;;;;;;;;;;5063711;28;20079;-89
2021/07/18 06:56:48;;;;;;;12.30;6.68;;;;;;;;;;5062049;28;20048;-90
2021/07/18 06:59:14;;;;;;;11.65;6.03;;;;;;;;;;5062270;28;20025;-89
2021/07/18 07:01:39;;;;;;;16.08;7.03;;;;;;;;;;5074660;28;20115;-89
2021/07/18 07:04:04;;;;;;;11.25;6.22;;;;;;;;;;5075774;28;20021;-89
2021/07/18 07:06:29;;;;;;;11.38;5.40;;;;;;;;;;5073694;28;20029;-89
2021/07/18 07:08:55;;;;;;;10.25;5.28;;;;;;;;;;5075665;28;20024;-89
2021/07/18 07:11:20;;;;;;;9.63;4.88;;;;;;;;;;5075898;28;20021;-90
2021/07/18 07:13:46;;;;;;;13.85;5.63;;;;;;;;;;5074646;28;20081;-89
2021/07/18 07:16:11;;;;;;;9.98;4.72;;;;;;;;;;5074348;28;20028;-90
2021/07/18 07:18:36;;;;;;;9.55;5.18;;;;;;;;;;5075560;28;20042;-89
2021/07/18 07:21:02;;;;;;;12.32;5.10;;;;;;;;;;5074233;28;20024;-89
2021/07/18 07:23:27;;;;;;;11.57;4.47;;;;;;;;;;5057723;28;20020;-89
2021/07/18 07:25:52;;;;;;;14.00;4.53;;;;;;;;;;5054039;28;20021;-89
2021/07/18 07:28:17;;;;;;;11.82;5.07;;;;;;;;;;5062193;28;20008;-89
2021/07/18 07:30:43;;;;;;;9.95;4.53;;;;;;;;;;5074055;28;20074;-89
2021/07/18 07:33:09;;;;;;;6.95;3.65;;;;;;;;;;5064155;28;20025;-89
2021/07/18 07:35:34;;;;;;;6.75;3.47;;;;;;;;;;5074147;28;20017;-89
2021/07/18 07:37:59;;;;;;;5.68;3.33;;;;;;;;;;5064961;28;20053;-89
2021/07/18 07:40:24;;;;;;;7.47;2.90;;;;;;;;;;5060220;28;20028;-89
2021/07/18 07:42:50;;;;;;;10.00;2.53;;;;;;;;;;5070512;28;20059;-89
2021/07/18 07:45:15;;;;;;;4.57;2.78;;;;;;;;;;5070659;28;20021;-89
2021/07/18 07:47:41;;;;;;;4.78;2.40;;;;;;;;;;5070476;28;20024;-89
2021/07/18 07:50:07;;;;;;;5.45;2.50;;;;;;;;;;5072674;28;20093;-89
2021/07/18 07:52:33;;;;;;;7.22;3.70;;;;;;;;;;5060808;28;20020;-89
2021/07/18 07:54:58;;;;;;;5.55;2.70;;;;;;;;;;5068681;28;20040;-89
2021/07/18 07:57:24;;;;;;;5.57;2.40;;;;;;;;;;5072679;28;20027;-89
2021/07/18 07:59:49;;;;;;;6.68;2.45;;;;;;;;;;5071852;28;20107;-89
2021/07/18 08:02:14;;;;;;;8.63;2.15;;;;;;;;;;5056088;28;20033;-89
2021/07/18 08:04:39;;;;;;;4.15;2.17;;;;;;;;;;5063175;28;20021;-88
2021/07/18 08:07:05;;;;;;;7.38;2.22;;;;;;;;;;5054038;28;20052;-87
2021/07/18 08:09:30;;;;;;;4.82;2.28;;;;;;;;;;5067731;28;20016;-88
2021/07/18 08:11:55;;;;;;;6.90;2.28;;;;;;;;;;5055528;28;20063;-87
2021/07/18 08:14:20;;;;;;;6.80;2.50;;;;;;;;;;5057605;28;20479;-88
2021/07/18 08:16:46;;;;;;;7.53;2.10;;;;;;;;;;5073071;28;20508;-88
2021/07/18 08:19:13;;;;;;;3.75;2.50;;;;;;;;;;5072719;28;20032;-88
2021/07/18 08:21:38;;;;;;;6.68;2.15;;;;;;;;;;5065472;28;20016;-87
2021/07/18 08:24:03;;;;;;;5.53;2.00;;;;;;;;;;5067607;28;20540;-87
2021/07/18 08:26:28;;;;;;;5.40;2.20;;;;;;;;;;5062829;28;20029;-87
2021/07/18 08:28:54;;;;;;;7.22;1.85;;;;;;;;;;5066627;28;20020;-87
2021/07/18 08:31:19;;;;;;;6.18;1.90;;;;;;;;;;5072692;28;20035;-88
2021/07/18 08:33:44;;;;;;;5.45;2.17;;;;;;;;;;5071500;28;20035;-87
2021/07/18 08:36:11;;;;;;;5.80;2.33;;;;;;;;;;5069641;28;20033;-87
2021/07/18 08:38:36;;;;;;;4.70;2.30;;;;;;;;;;5053569;28;20055;-88
2021/07/18 08:41:01;;;;;;;8.40;2.10;;;;;;;;;;5054130;28;20025;-88
2021/07/18 08:43:27;;;;;;;5.10;2.17;;;;;;;;;;5052576;28;20013;-88
2021/07/18 08:45:52;;;;;;;6.80;2.00;;;;;;;;;;5051894;28;20021;-87
2021/07/18 08:48:17;;;;;;;4.82;2.30;;;;;;;;;;5055270;28;20427;-86
2021/07/18 08:50:43;;;;;;;10.77;2.83;;;;;;;;;;5066734;28;20026;-88
2021/07/18 08:53:08;;;;;;;8.77;2.42;;;;;;;;;;5072364;28;20490;-87
2021/07/18 08:55:33;;;;;;;5.65;2.58;;;;;;;;;;5069839;28;20016;-88
2021/07/18 08:57:59;;;;;;;6.57;2.35;;;;;;;;;;5051915;28;20070;-87
2021/07/18 09:00:24;;;;;;;6.47;2.72;;;;;;;;;;5067909;28;20405;-88
2021/07/18 09:02:49;;;;;;;6.07;2.70;;;;;;;;;;5070220;28;20008;-88
2021/07/18 09:05:15;;;;;;;5.55;2.50;;;;;;;;;;5072259;28;20055;-88
2021/07/18 09:07:44;;;;;;;4.60;2.38;;;;;;;;;;5052532;28;20028;-88
2021/07/18 09:10:10;;;;;;;7.55;2.38;;;;;;;;;;5053507;28;20110;-88
2021/07/18 09:12:35;;;;;;;9.30;2.22;;;;;;;;;;5060838;28;20020;-90
2021/07/18 09:15:00;;;;;;;5.68;2.50;;;;;;;;;;5051161;28;20025;-89
2021/07/18 09:17:31;;;;;;;7.22;2.20;;;;;;;;;;5052974;28;20024;-88
2021/07/18 09:20:00;;;;;;;5.30;2.37;;;;;;;;;;5053009;28;20021;-89
2021/07/18 09:22:26;;;;;;;6.95;2.45;;;;;;;;;;5051992;28;20110;-89
2021/07/18 09:25:09;;;;;;;5.90;2.03;;;;;;;;;;5055316;28;20021;-90
2021/07/18 09:27:34;;;;;;;3.20;1.95;;;;;;;;;;5060635;28;20029;-89
2021/07/18 09:30:04;;;;;;;5.00;2.55;;;;;;;;;;5052828;28;20522;-89
2021/07/18 09:32:31;;;;;;;3.60;2.35;;;;;;;;;;5062074;28;20031;-89
2021/07/18 09:35:00;;;;;;;6.45;2.38;;;;;;;;;;5071824;28;20029;-89
2021/07/18 09:37:26;;;;;;;5.65;2.33;;;;;;;;;;5071814;28;20028;-89
2021/07/18 09:40:18;;;;;;;4.97;2.38;;;;;;;;;;5071748;28;20035;-90
2021/07/18 09:42:49;;;;;;;5.93;2.72;;;;;;;;;;5070680;28;20040;-89
2021/07/18 09:45:16;;;;;;;9.30;2.72;;;;;;;;;;5054466;28;20075;-89
2021/07/18 09:47:56;;;;;;;4.85;2.45;;;;;;;;;;5060747;28;20384;-89
2021/07/18 09:50:23;;;;;;;7.07;2.40;;;;;;;;;;5058681;28;20043;-89
2021/07/18 09:52:49;;;;;;;4.43;2.08;;;;;;;;;;5062628;28;20102;-90
2021/07/18 09:55:21;;;;;;;5.75;2.80;;;;;;;;;;5054022;28;20464;-89
2021/07/18 09:57:50;;;;;;;7.53;2.55;;;;;;;;;;5072072;28;20023;-89
2021/07/18 10:00:15;;;;;;;5.57;2.83;;;;;;;;;;5062912;28;20027;-89
2021/07/18 10:02:40;;;;;;;9.63;2.80;;;;;;;;;;5072072;28;20096;-90
2021/07/18 10:05:06;;;;;;;5.10;2.72;;;;;;;;;;5071225;28;20044;-90
2021/07/18 10:07:32;;;;;;;9.45;2.63;;;;;;;;;;5057479;28;20066;-90
2021/07/18 10:09:58;;;;;;;7.85;2.90;;;;;;;;;;5070227;28;20074;-90
2021/07/18 10:12:24;;;;;;;5.07;2.85;;;;;;;;;;5072623;28;20025;-90
2021/07/18 10:14:49;;;;;;;10.02;2.40;;;;;;;;;;5073070;28;20465;-90
2021/07/18 10:17:17;;;;;;;4.90;2.80;;;;;;;;;;5072441;28;20126;-89
2021/07/18 10:19:43;;;;;;;7.22;2.92;;;;;;;;;;5051683;28;20145;-90
2021/07/18 10:22:09;;;;;;;8.00;2.55;;;;;;;;;;5061347;28;20056;-90
2021/07/18 10:24:34;;;;;;;9.25;3.17;;;;;;;;;;5071543;28;20035;-89
2021/07/18 10:27:02;;;;;;;4.00;2.53;;;;;;;;;;5071603;28;20381;-90
2021/07/18 10:29:28;;;;;;;6.75;2.90;;;;;;;;;;5071779;28;20074;-90
2021/07/18 10:31:54;;;;;;;7.90;2.70;;;;;;;;;;5052269;28;20021;-90
2021/07/18 10:34:24;;;;;;;4.40;2.75;;;;;;;;;;5062791;28;20021;-90
2021/07/18 10:36:50;;;;;;;14.65;2.70;;;;;;;;;;5068650;28;20430;-90
2021/07/18 10:39:29;;;;;;;5.57;3.03;;;;;;;;;;5069767;28;20028;-90
2021/07/18 10:41:54;;;;;;;7.78;3.65;;;;;;;;;;5069475;28;20096;-90
2021/07/18 10:44:20;;;;;;;13.38;3.05;;;;;;;;;;5070059;28;20024;-90
2021/07/18 10:46:53;;;;;;;7.22;3.10;;;;;;;;;;5055156;28;20025;-90
2021/07/18 10:49:38;;;;;;;7.25;3.00;;;;;;;;;;5061091;28;20530;-90
2021/07/18 10:52:10;;;;;;;7.32;2.70;;;;;;;;;;5059881;28;20555;-90
2021/07/18 10:54:38;;;;;;;6.28;3.35;;;;;;;;;;5059624;28;20094;-90
2021/07/18 10:57:18;;;;;;;9.35;2.80;;;;;;;;;;5055435;28;20017;-90
2021/07/18 10:59:43;;;;;;;3.78;2.50;;;;;;;;;;5070051;28;20070;-90
2021/07/18 11:02:08;;;;;;;6.40;3.28;;;;;;;;;;5067402;28;20024;-90
2021/07/18 11:04:41;;;;;;;8.40;3.78;;;;;;;;;;5062202;28;20016;-90
2021/07/18 11:07:21;;;;;;;6.80;3.28;;;;;;;;;;5068722;28;20127;-91
2021/07/18 11:09:46;;;;;;;9.65;3.05;;;;;;;;;;5059745;28;20472;-89
2021/07/18 11:12:22;;;;;;;5.88;3.28;;;;;;;;;;5066704;28;20025;-90
2021/07/18 11:14:47;;;;;;;6.82;3.00;;;;;;;;;;5057360;28;20488;-90
2021/07/18 11:17:25;;;;;;;7.80;3.63;;;;;;;;;;5055473;28;20033;-89
2021/07/18 11:19:55;;;;;;;7.97;3.20;;;;;;;;;;5070602;28;20472;-89
2021/07/18 11:22:40;;;;;;;6.57;2.50;;;;;;;;;;5054466;28;20041;-89
2021/07/18 11:25:06;;;;;;;7.25;3.25;;;;;;;;;;5070512;28;20387;-90
2021/07/18 11:27:32;;;;;;;8.55;3.17;;;;;;;;;;5075744;28;20028;-89
2021/07/18 11:29:59;;;;;;;5.32;3.20;;;;;;;;;;5061394;28;20021;-90
2021/07/18 11:32:25;;;;;;;11.73;3.70;;;;;;;;;;5065128;28;20155;-91
2021/07/18 11:34:53;;;;;;;7.53;3.53;;;;;;;;;;5058164;28;20365;-89
2021/07/18 11:37:19;;;;;;;5.55;3.42;;;;;;;;;;5067854;28;20032;-90
2021/07/18 11:39:44;;;;;;;9.25;3.30;;;;;;;;;;5053883;28;20013;-89
2021/07/18 11:42:11;;;;;;;6.15;3.13;;;;;;;;;;5053093;28;20112;-90
2021/07/18 11:44:39;;;;;;;6.55;3.45;;;;;;;;;;5054821;28;20029;-90
2021/07/18 11:47:05;;;;;;;7.70;3.30;;;;;;;;;;5053150;28;20051;-90
2021/07/18 11:49:32;;;;;;;10.55;3.72;;;;;;;;;;5064012;28;20111;-91
2021/07/18 11:51:58;;;;;;;6.93;3.65;;;;;;;;;;5064451;28;20385;-86
2021/07/18 11:54:24;;;;;;;15.10;3.95;;;;;;;;;;5066181;28;20016;-86
2021/07/18 11:56:50;;;;;;;6.85;3.63;;;;;;;;;;5066994;28;20479;-85
2021/07/18 11:59:20;;;;;;;7.13;3.58;;;;;;;;;;5061606;28;20383;-86
2021/07/18 12:01:47;;;;;;;9.20;3.22;;;;;;;;;;5055644;28;20481;-86
2021/07/18 12:04:13;;;;;;;11.82;4.13;;;;;;;;;;5073812;28;20012;-86
2021/07/18 12:06:39;;;;;;;10.88;3.78;;;;;;;;;;5066287;28;20468;-86
2021/07/18 12:09:11;;;;;;;7.47;3.50;;;;;;;;;;5071148;28;20264;-86
2021/07/18 12:11:39;;;;;;;10.20;3.50;;;;;;;;;;5064569;28;20025;-86
2021/07/18 12:14:05;;;;;;;8.93;3.85;;;;;;;;;;5072419;28;20158;-86
2021/07/18 12:16:31;;;;;;;11.68;4.35;;;;;;;;;;5058329;28;20423;-86
2021/07/18 12:18:56;;;;;;;8.98;4.40;;;;;;;;;;5068466;28;20063;-85
2021/07/18 12:21:22;;;;;;;9.48;4.40;;;;;;;;;;5061695;28;20028;-86
2021/07/18 12:24:07;;;;;;;8.23;4.35;;;;;;;;;;5065438;28;20024;-86
2021/07/18 12:26:32;;;;;;;10.77;4.15;;;;;;;;;;5054978;28;20013;-86
2021/07/18 12:29:09;;;;;;;7.50;4.00;;;;;;;;;;5072885;28;20013;-86
2021/07/18 12:31:36;;;;;;;6.38;3.75;;;;;;;;;;5073463;28;20028;-86
2021/07/18 12:34:01;;;;;;;9.23;4.15;;;;;;;;;;5065638;28;20028;-86
2021/07/18 12:36:26;;;;;;;8.65;3.92;;;;;;;;;;5054321;28;20020;-85
2021/07/18 12:38:52;;;;;;;9.30;4.63;;;;;;;;;;5053434;28;20031;-86
2021/07/18 12:41:18;;;;;;;12.13;3.72;;;;;;;;;;5052222;28;20031;-86
2021/07/18 12:43:43;;;;;;;10.43;4.10;;;;;;;;;;5055260;28;20023;-86
2021/07/18 12:46:09;;;;;;;7.78;3.63;;;;;;;;;;5051979;28;20033;-86
2021/07/18 12:48:34;;;;;;;11.70;4.57;;;;;;;;;;5069840;28;20016;-86
2021/07/18 12:51:12;;;;;;;5.35;4.13;;;;;;;;;;5067565;28;20020;-86
2021/07/18 12:53:37;;;;;;;6.60;4.38;;;;;;;;;;5060307;28;20108;-87
2021/07/18 12:56:02;;;;;;;6.90;4.22;;;;;;;;;;5065820;28;20108;-86
2021/07/18 12:58:32;;;;;;;8.35;4.43;;;;;;;;;;5066073;28;20052;-86
2021/07/18 13:00:59;;;;;;;6.35;4.00;;;;;;;;;;5055827;28;20521;-86
2021/07/18 13:03:25;;;;;;;12.32;3.90;;;;;;;;;;5065680;28;20013;-86
2021/07/18 13:05:50;;;;;;;9.18;4.72;;;;;;;;;;5072264;28;20456;-86
2021/07/18 13:08:34;;;;;;;6.03;3.92;;;;;;;;;;5057682;28;20025;-86
2021/07/18 13:11:00;;;;;;;10.52;4.50;;;;;;;;;;5056729;28;20016;-87
2021/07/18 13:13:34;;;;;;;8.48;4.60;;;;;;;;;;5071847;28;20119;-86
2021/07/18 13:16:01;;;;;;;8.70;4.38;;;;;;;;;;5071515;28;20021;-87
2021/07/18 13:18:33;;;;;;;13.00;4.50;;;;;;;;;;5060768;28;20021;-86
2021/07/18 13:21:08;;;;;;;9.43;4.63;;;;;;;;;;5062487;28;20017;-86
2021/07/18 13:23:33;;;;;;;7.43;4.13;;;;;;;;;;5078328;28;20016;-86
2021/07/18 13:25:58;;;;;;;6.03;4.38;;;;;;;;;;5059336;28;20469;-86
2021/07/18 13:28:26;;;;;;;14.48;4.72;;;;;;;;;;5071431;28;20016;-87
2021/07/18 13:30:52;;;;;;;9.00;4.60;;;;;;;;;;5060665;28;20025;-86
2021/07/18 13:33:20;;;;;;;10.55;4.80;;;;;;;;;;5053493;28;20017;-86
2021/07/18 13:35:49;;;;;;;12.48;4.32;;;;;;;;;;5056839;28;20021;-86
2021/07/18 13:38:24;;;;;;;6.53;4.68;;;;;;;;;;5061731;28;20023;-86
2021/07/18 13:41:11;;;;;;;9.32;3.95;;;;;;;;;;5046698;28;20067;-85
2021/07/18 13:43:50;;;;;;;;;;;;;;;;;;;;;
2021/07/18 13:46:25;;;;;;;7.22;3.20;;;;;;;;;;5047559;28;20043;-86
2021/07/18 13:48:50;;;;;;;6.82;3.88;;;;;;;;;;5048525;28;20033;-86
2021/07/18 13:51:15;;;;;;;9.32;3.50;;;;;;;;;;5048038;28;20070;-86
2021/07/18 13:53:41;;;;;;;9.48;4.00;;;;;;;;;;5049461;28;20017;-86
2021/07/18 13:56:06;;;;;;;9.43;3.78;;;;;;;;;;5053271;28;20376;-86
2021/07/18 13:58:31;;;;;;;6.65;3.72;;;;;;;;;;5045514;28;20337;-85
2021/07/18 14:01:05;;;;;;;12.50;3.70;;;;;;;;;;5047614;28;20526;-86
2021/07/18 14:03:31;;;;;;;10.10;4.13;;;;;;;;;;5049945;28;20133;-86
2021/07/18 14:05:57;;;;;;;5.35;3.38;;;;;;;;;;5041590;28;20475;-85
2021/07/18 14:08:22;;;;;;;12.35;3.97;;;;;;;;;;5048415;28;20013;-86
2021/07/18 14:10:47;;;;;;;13.80;3.80;;;;;;;;;;5044480;28;20030;-86
2021/07/18 14:13:14;;;;;;;12.85;4.35;;;;;;;;;;5048001;28;20036;-86
2021/07/18 14:15:39;;;;;;;9.98;3.63;;;;;;;;;;5051285;28;20503;-86
2021/07/18 14:18:05;;;;;;;10.13;3.75;;;;;;;;;;5044303;28;20021;-86
2021/07/18 14:20:31;;;;;;;6.32;3.55;;;;;;;;;;5045719;28;20135;-86
2021/07/18 14:22:57;;;;;;;13.38;4.03;;;;;;;;;;5046718;28;20096;-86
2021/07/18 14:25:25;;;;;;;7.55;3.42;;;;;;;;;;5043263;28;20452;-86
2021/07/18 14:27:51;;;;;;;7.25;3.38;;;;;;;;;;5048810;28;20017;-86
2021/07/18 14:30:18;;;;;;;5.68;3.80;;;;;;;;;;5047698;28;20021;-86
2021/07/18 14:32:44;;;;;;;11.90;4.03;;;;;;;;;;5046509;28;20028;-86